Main page
METAR-TAF:

METAR-TAF

Airports :

Kulob, Tajikistan

Kulob Airport

latitude: 37-59-18N, longitude: 069-48-18E, elevation: 699 m

Current weather observation

The report was made 10 minutes ago, at 02:30 UTC
Wind 2 kt from variable directions
Temperature 15°C
Humidity 51%
Pressure 1016 hPa
Visibility 10 km or more

METAR: UTDK 220230Z VRB01MPS 9999 NSC 15/05 Q1016 R01/09//70 RMK QFE705/0940

Time: 07:40 (02:40 UTC)

Forecast

The report was made 2 hours and 40 minutes ago, at 00:00 UTC
Forecast valid from 22 at 01 UTC to 22 at 10 UTC
Wind 4 kt from variable directions
Visibility: 6000 m
Few clouds at a height of 6600 ft
Scattered clouds at a height of 15000 ft
Temporary
from 22 at 04 UTC to 22 at 10 UTC
Wind 10 kt from the South/Southwest

TAF: UTDK 220000Z 2201/2210 VRB02MPS 6000 FEW066 SCT150 TEMPO 2204/2210 21005MPS

Weather observations and forecasts of more than 4000 airports (METAR and TAF reports).

The available stations are represented by yellow and red dots on the map.

Hover mouse over dot to see the name of the station.

Then click to see weather observations and forecasts.

To change the map : click on the green buttons with a black cross to zoom in, on the green button with a dash to zoom out, or on the green arrows for adjacent maps.


METAR-TAF: